sensor_id;sensor_type;location;lat;lon;timestamp;P1;P2;P0
57049;PMS7003;42935;50.966;16.992;2023-02-08T00:02:34;57;40;26
57049;PMS7003;42935;50.966;16.992;2023-02-08T00:05:59;63;45;28
57049;PMS7003;42935;50.966;16.992;2023-02-08T00:09:13;51;38;22
57049;PMS7003;42935;50.966;16.992;2023-02-08T00:12:26;55;39;24
57049;PMS7003;42935;50.966;16.992;2023-02-08T00:15:39;58;42;25
57049;PMS7003;42935;50.966;16.992;2023-02-08T00:18:46;54;41;25
57049;PMS7003;42935;50.966;16.992;2023-02-08T00:21:55;57;37;24
57049;PMS7003;42935;50.966;16.992;2023-02-08T00:25:05;50;36;23
57049;PMS7003;42935;50.966;16.992;2023-02-08T00:28:15;50;34;24
57049;PMS7003;42935;50.966;16.992;2023-02-08T00:31:26;52;37;23
57049;PMS7003;42935;50.966;16.992;2023-02-08T00:34:36;48;34;21
57049;PMS7003;42935;50.966;16.992;2023-02-08T00:37:53;56;38;23
57049;PMS7003;42935;50.966;16.992;2023-02-08T00:41:01;59;41;25
57049;PMS7003;42935;50.966;16.992;2023-02-08T00:44:16;50;39;26
57049;PMS7003;42935;50.966;16.992;2023-02-08T00:47:29;61;42;25
57049;PMS7003;42935;50.966;16.992;2023-02-08T00:50:43;57;40;25
57049;PMS7003;42935;50.966;16.992;2023-02-08T00:53:58;57;42;26
57049;PMS7003;42935;50.966;16.992;2023-02-08T00:57:08;65;47;29
57049;PMS7003;42935;50.966;16.992;2023-02-08T01:00:17;61;40;25
57049;PMS7003;42935;50.966;16.992;2023-02-08T01:03:29;61;42;26
57049;PMS7003;42935;50.966;16.992;2023-02-08T01:06:44;56;42;26
57049;PMS7003;42935;50.966;16.992;2023-02-08T01:10:02;56;40;24
57049;PMS7003;42935;50.966;16.992;2023-02-08T01:13:14;47;33;19
57049;PMS7003;42935;50.966;16.992;2023-02-08T01:16:25;44;31;20
57049;PMS7003;42935;50.966;16.992;2023-02-08T01:19:46;46;31;19
57049;PMS7003;42935;50.966;16.992;2023-02-08T01:22:58;41;29;17
57049;PMS7003;42935;50.966;16.992;2023-02-08T01:26:06;41;26;16
57049;PMS7003;42935;50.966;16.992;2023-02-08T01:29:16;36;25;13
57049;PMS7003;42935;50.966;16.992;2023-02-08T01:32:23;30;22;14
57049;PMS7003;42935;50.966;16.992;2023-02-08T01:35:37;32;25;15
57049;PMS7003;42935;50.966;16.992;2023-02-08T01:38:51;35;22;14
57049;PMS7003;42935;50.966;16.992;2023-02-08T01:41:58;23;17;12
57049;PMS7003;42935;50.966;16.992;2023-02-08T01:48:29;26;18;13
57049;PMS7003;42935;50.966;16.992;2023-02-08T01:55:11;33;23;15
57049;PMS7003;42935;50.966;16.992;2023-02-08T01:58:31;46;32;18
57049;PMS7003;42935;50.966;16.992;2023-02-08T02:01:48;33;24;15
57049;PMS7003;42935;50.966;16.992;2023-02-08T02:05:05;45;31;18
57049;PMS7003;42935;50.966;16.992;2023-02-08T02:08:27;45;32;19
57049;PMS7003;42935;50.966;16.992;2023-02-08T02:11:38;45;33;18
57049;PMS7003;42935;50.966;16.992;2023-02-08T02:14:45;54;39;24
57049;PMS7003;42935;50.966;16.992;2023-02-08T02:18:00;49;36;20
57049;PMS7003;42935;50.966;16.992;2023-02-08T02:21:23;50;39;23
57049;PMS7003;42935;50.966;16.992;2023-02-08T02:31:38;50;37;23
57049;PMS7003;42935;50.966;16.992;2023-02-08T02:38:24;52;38;21
57049;PMS7003;42935;50.966;16.992;2023-02-08T02:51:55;48;33;19
57049;PMS7003;42935;50.966;16.992;2023-02-08T02:55:14;45;36;19
57049;PMS7003;42935;50.966;16.992;2023-02-08T02:58:28;45;34;21
57049;PMS7003;42935;50.966;16.992;2023-02-08T03:01:41;43;29;17
57049;PMS7003;42935;50.966;16.992;2023-02-08T03:04:51;40;30;19
57049;PMS7003;42935;50.966;16.992;2023-02-08T03:11:37;46;35;20
57049;PMS7003;42935;50.966;16.992;2023-02-08T03:15:15;48;34;19
57049;PMS7003;42935;50.966;16.992;2023-02-08T03:18:23;43;33;20
57049;PMS7003;42935;50.966;16.992;2023-02-08T03:21:39;48;32;20
57049;PMS7003;42935;50.966;16.992;2023-02-08T03:24:54;46;35;20
57049;PMS7003;42935;50.966;16.992;2023-02-08T03:28:11;41;33;19
57049;PMS7003;42935;50.966;16.992;2023-02-08T03:31:32;44;34;21
57049;PMS7003;42935;50.966;16.992;2023-02-08T03:38:26;54;34;21
57049;PMS7003;42935;50.966;16.992;2023-02-08T03:41:46;50;34;19
57049;PMS7003;42935;50.966;16.992;2023-02-08T03:45:10;41;29;19
57049;PMS7003;42935;50.966;16.992;2023-02-08T03:48:29;54;36;20
57049;PMS7003;42935;50.966;16.992;2023-02-08T03:51:46;34;28;17
57049;PMS7003;42935;50.966;16.992;2023-02-08T03:55:02;41;33;19
57049;PMS7003;42935;50.966;16.992;2023-02-08T03:58:20;41;30;20
57049;PMS7003;42935;50.966;16.992;2023-02-08T04:01:37;48;32;18
57049;PMS7003;42935;50.966;16.992;2023-02-08T04:04:53;43;32;21
57049;PMS7003;42935;50.966;16.992;2023-02-08T04:08:13;46;33;20
57049;PMS7003;42935;50.966;16.992;2023-02-08T04:11:35;52;34;19
57049;PMS7003;42935;50.966;16.992;2023-02-08T04:14:49;46;34;21
57049;PMS7003;42935;50.966;16.992;2023-02-08T04:17:58;46;33;20
57049;PMS7003;42935;50.966;16.992;2023-02-08T04:21:10;46;32;20
57049;PMS7003;42935;50.966;16.992;2023-02-08T04:24:17;47;35;21
57049;PMS7003;42935;50.966;16.992;2023-02-08T04:27:31;54;37;23
57049;PMS7003;42935;50.966;16.992;2023-02-08T04:30:45;55;38;23
57049;PMS7003;42935;50.966;16.992;2023-02-08T04:33:55;50;37;21
57049;PMS7003;42935;50.966;16.992;2023-02-08T04:37:05;51;36;21
57049;PMS7003;42935;50.966;16.992;2023-02-08T04:40:16;49;32;20
57049;PMS7003;42935;50.966;16.992;2023-02-08T04:43:25;52;38;24
57049;PMS7003;42935;50.966;16.992;2023-02-08T04:46:39;45;35;23
57049;PMS7003;42935;50.966;16.992;2023-02-08T04:49:52;54;34;21
57049;PMS7003;42935;50.966;16.992;2023-02-08T04:53:06;50;36;20
57049;PMS7003;42935;50.966;16.992;2023-02-08T04:56:15;52;37;21
57049;PMS7003;42935;50.966;16.992;2023-02-08T04:59:21;52;36;21
57049;PMS7003;42935;50.966;16.992;2023-02-08T05:02:33;49;37;21
57049;PMS7003;42935;50.966;16.992;2023-02-08T05:05:57;50;36;21
57049;PMS7003;42935;50.966;16.992;2023-02-08T05:09:08;49;37;23
57049;PMS7003;42935;50.966;16.992;2023-02-08T05:12:23;66;47;27
57049;PMS7003;42935;50.966;16.992;2023-02-08T05:15:33;54;40;24
57049;PMS7003;42935;50.966;16.992;2023-02-08T05:18:55;57;39;24
57049;PMS7003;42935;50.966;16.992;2023-02-08T05:22:10;60;40;24
57049;PMS7003;42935;50.966;16.992;2023-02-08T05:25:20;54;37;23
57049;PMS7003;42935;50.966;16.992;2023-02-08T05:28:30;60;40;25
57049;PMS7003;42935;50.966;16.992;2023-02-08T05:31:41;60;42;23
57049;PMS7003;42935;50.966;16.992;2023-02-08T05:34:58;65;43;25
57049;PMS7003;42935;50.966;16.992;2023-02-08T05:38:11;60;42;25
57049;PMS7003;42935;50.966;16.992;2023-02-08T05:41:23;67;49;30
57049;PMS7003;42935;50.966;16.992;2023-02-08T05:44:32;67;45;29
57049;PMS7003;42935;50.966;16.992;2023-02-08T05:47:46;68;48;30
57049;PMS7003;42935;50.966;16.992;2023-02-08T05:50:56;68;49;30
57049;PMS7003;42935;50.966;16.992;2023-02-08T05:54:09;77;55;32
57049;PMS7003;42935;50.966;16.992;2023-02-08T05:57:24;72;49;27
57049;PMS7003;42935;50.966;16.992;2023-02-08T06:00:42;160;103;52
57049;PMS7003;42935;50.966;16.992;2023-02-08T06:03:58;196;124;57
57049;PMS7003;42935;50.966;16.992;2023-02-08T06:07:46;102;68;40
57049;PMS7003;42935;50.966;16.992;2023-02-08T06:10:59;157;103;52
57049;PMS7003;42935;50.966;16.992;2023-02-08T06:14:18;171;121;60
57049;PMS7003;42935;50.966;16.992;2023-02-08T06:17:28;154;101;53
57049;PMS7003;42935;50.966;16.992;2023-02-08T06:20:45;194;129;64
57049;PMS7003;42935;50.966;16.992;2023-02-08T06:23:56;116;79;44
57049;PMS7003;42935;50.966;16.992;2023-02-08T06:27:10;114;82;44
57049;PMS7003;42935;50.966;16.992;2023-02-08T06:30:27;165;113;58
57049;PMS7003;42935;50.966;16.992;2023-02-08T06:33:41;116;76;38
57049;PMS7003;42935;50.966;16.992;2023-02-08T06:37:20;116;77;42
57049;PMS7003;42935;50.966;16.992;2023-02-08T06:41:08;120;83;44
57049;PMS7003;42935;50.966;16.992;2023-02-08T06:44:21;116;77;42
57049;PMS7003;42935;50.966;16.992;2023-02-08T06:47:39;76;53;32
57049;PMS7003;42935;50.966;16.992;2023-02-08T06:50:53;82;55;34
57049;PMS7003;42935;50.966;16.992;2023-02-08T06:54:07;93;61;37
57049;PMS7003;42935;50.966;16.992;2023-02-08T06:57:25;92;61;38
57049;PMS7003;42935;50.966;16.992;2023-02-08T07:00:39;88;62;38
57049;PMS7003;42935;50.966;16.992;2023-02-08T07:03:53;93;64;39
57049;PMS7003;42935;50.966;16.992;2023-02-08T07:07:11;90;62;39
57049;PMS7003;42935;50.966;16.992;2023-02-08T07:10:24;89;61;36
57049;PMS7003;42935;50.966;16.992;2023-02-08T07:13:41;81;58;34
57049;PMS7003;42935;50.966;16.992;2023-02-08T07:16:53;77;53;33
57049;PMS7003;42935;50.966;16.992;2023-02-08T07:20:11;72;53;33
57049;PMS7003;42935;50.966;16.992;2023-02-08T07:23:25;79;55;33
57049;PMS7003;42935;50.966;16.992;2023-02-08T07:26:38;71;52;33
57049;PMS7003;42935;50.966;16.992;2023-02-08T07:29:52;75;51;31
57049;PMS7003;42935;50.966;16.992;2023-02-08T07:33:06;74;52;31
57049;PMS7003;42935;50.966;16.992;2023-02-08T07:36:24;79;53;32
57049;PMS7003;42935;50.966;16.992;2023-02-08T07:39:36;81;54;34
57049;PMS7003;42935;50.966;16.992;2023-02-08T07:42:45;78;55;33
57049;PMS7003;42935;50.966;16.992;2023-02-08T07:45:58;82;58;33
57049;PMS7003;42935;50.966;16.992;2023-02-08T07:49:18;85;58;35
57049;PMS7003;42935;50.966;16.992;2023-02-08T07:52:27;82;60;36
57049;PMS7003;42935;50.966;16.992;2023-02-08T07:55:38;86;59;36
57049;PMS7003;42935;50.966;16.992;2023-02-08T07:59:00;93;65;40
57049;PMS7003;42935;50.966;16.992;2023-02-08T08:02:14;85;61;38
57049;PMS7003;42935;50.966;16.992;2023-02-08T08:05:34;82;58;36
57049;PMS7003;42935;50.966;16.992;2023-02-08T08:08:45;86;58;36
57049;PMS7003;42935;50.966;16.992;2023-02-08T08:12:03;82;59;37
57049;PMS7003;42935;50.966;16.992;2023-02-08T08:15:17;85;57;35
57049;PMS7003;42935;50.966;16.992;2023-02-08T08:18:35;83;59;36
57049;PMS7003;42935;50.966;16.992;2023-02-08T08:21:49;83;59;36
57049;PMS7003;42935;50.966;16.992;2023-02-08T08:25:02;89;63;38
57049;PMS7003;42935;50.966;16.992;2023-02-08T08:28:16;84;57;35
57049;PMS7003;42935;50.966;16.992;2023-02-08T08:31:30;83;59;34
57049;PMS7003;42935;50.966;16.992;2023-02-08T08:34:47;80;55;33
57049;PMS7003;42935;50.966;16.992;2023-02-08T08:37:58;74;52;32
57049;PMS7003;42935;50.966;16.992;2023-02-08T08:41:11;82;56;35
57049;PMS7003;42935;50.966;16.992;2023-02-08T08:44:28;76;53;31
57049;PMS7003;42935;50.966;16.992;2023-02-08T08:47:38;76;53;31
57049;PMS7003;42935;50.966;16.992;2023-02-08T08:50:47;74;54;33
57049;PMS7003;42935;50.966;16.992;2023-02-08T08:54:04;79;53;32
57049;PMS7003;42935;50.966;16.992;2023-02-08T08:57:18;76;55;33
57049;PMS7003;42935;50.966;16.992;2023-02-08T09:00:36;74;52;31
57049;PMS7003;42935;50.966;16.992;2023-02-08T09:03:50;78;54;33
57049;PMS7003;42935;50.966;16.992;2023-02-08T09:07:03;76;53;32
57049;PMS7003;42935;50.966;16.992;2023-02-08T09:10:17;76;51;31
57049;PMS7003;42935;50.966;16.992;2023-02-08T09:13:25;81;54;33
57049;PMS7003;42935;50.966;16.992;2023-02-08T09:16:43;83;58;34
57049;PMS7003;42935;50.966;16.992;2023-02-08T09:20:07;78;56;34
57049;PMS7003;42935;50.966;16.992;2023-02-08T09:23:18;73;52;31
57049;PMS7003;42935;50.966;16.992;2023-02-08T09:26:36;71;52;30
57049;PMS7003;42935;50.966;16.992;2023-02-08T09:29:48;71;50;29
57049;PMS7003;42935;50.966;16.992;2023-02-08T09:33:01;78;55;32
57049;PMS7003;42935;50.966;16.992;2023-02-08T09:36:20;73;49;30
57049;PMS7003;42935;50.966;16.992;2023-02-08T09:39:31;72;53;31
57049;PMS7003;42935;50.966;16.992;2023-02-08T09:42:51;74;53;32
57049;PMS7003;42935;50.966;16.992;2023-02-08T09:46:15;72;50;32
57049;PMS7003;42935;50.966;16.992;2023-02-08T09:49:38;72;52;31
57049;PMS7003;42935;50.966;16.992;2023-02-08T09:59:51;76;53;31
57049;PMS7003;42935;50.966;16.992;2023-02-08T10:06:35;78;52;32
57049;PMS7003;42935;50.966;16.992;2023-02-08T10:09:52;76;53;29
57049;PMS7003;42935;50.966;16.992;2023-02-08T10:13:11;72;51;31
57049;PMS7003;42935;50.966;16.992;2023-02-08T10:16:54;76;53;33
57049;PMS7003;42935;50.966;16.992;2023-02-08T10:33:47;78;57;34
57049;PMS7003;42935;50.966;16.992;2023-02-08T10:37:13;79;56;34
57049;PMS7003;42935;50.966;16.992;2023-02-08T10:40:29;79;55;34
57049;PMS7003;42935;50.966;16.992;2023-02-08T10:43:44;69;52;31
57049;PMS7003;42935;50.966;16.992;2023-02-08T10:53:52;80;55;33
57049;PMS7003;42935;50.966;16.992;2023-02-08T11:00:33;77;55;33
57049;PMS7003;42935;50.966;16.992;2023-02-08T11:10:32;78;56;34
57049;PMS7003;42935;50.966;16.992;2023-02-08T11:13:44;81;58;35
57049;PMS7003;42935;50.966;16.992;2023-02-08T11:17:00;83;59;36
57049;PMS7003;42935;50.966;16.992;2023-02-08T11:20:18;75;55;34
57049;PMS7003;42935;50.966;16.992;2023-02-08T11:23:30;77;54;31
57049;PMS7003;42935;50.966;16.992;2023-02-08T11:26:47;79;56;34
57049;PMS7003;42935;50.966;16.992;2023-02-08T11:33:24;81;57;35
57049;PMS7003;42935;50.966;16.992;2023-02-08T11:39:50;81;56;35
57049;PMS7003;42935;50.966;16.992;2023-02-08T11:43:05;78;55;33
57049;PMS7003;42935;50.966;16.992;2023-02-08T11:46:23;81;56;33
57049;PMS7003;42935;50.966;16.992;2023-02-08T11:49:40;80;56;33
57049;PMS7003;42935;50.966;16.992;2023-02-08T11:52:57;83;57;35
57049;PMS7003;42935;50.966;16.992;2023-02-08T11:56:18;84;59;37
57049;PMS7003;42935;50.966;16.992;2023-02-08T11:59:43;85;57;34
57049;PMS7003;42935;50.966;16.992;2023-02-08T12:03:02;79;55;33
57049;PMS7003;42935;50.966;16.992;2023-02-08T12:30:32;71;53;32
57049;PMS7003;42935;50.966;16.992;2023-02-08T12:37:29;71;53;32
57049;PMS7003;42935;50.966;16.992;2023-02-08T12:57:59;76;53;32
57049;PMS7003;42935;50.966;16.992;2023-02-08T13:01:21;72;51;31
57049;PMS7003;42935;50.966;16.992;2023-02-08T13:04:39;78;54;32
57049;PMS7003;42935;50.966;16.992;2023-02-08T13:08:05;74;52;31
57049;PMS7003;42935;50.966;16.992;2023-02-08T13:11:23;78;54;33
57049;PMS7003;42935;50.966;16.992;2023-02-08T13:14:49;82;55;33
57049;PMS7003;42935;50.966;16.992;2023-02-08T13:21:31;74;54;31
57049;PMS7003;42935;50.966;16.992;2023-02-08T13:24:52;74;54;33
57049;PMS7003;42935;50.966;16.992;2023-02-08T13:28:16;72;53;31
57049;PMS7003;42935;50.966;16.992;2023-02-08T13:34:57;79;55;35
57049;PMS7003;42935;50.966;16.992;2023-02-08T13:41:49;81;57;35
57049;PMS7003;42935;50.966;16.992;2023-02-08T13:45:05;77;57;34
57049;PMS7003;42935;50.966;16.992;2023-02-08T13:48:22;82;57;33
57049;PMS7003;42935;50.966;16.992;2023-02-08T13:52:01;85;61;36
57049;PMS7003;42935;50.966;16.992;2023-02-08T13:58:27;80;59;36
57049;PMS7003;42935;50.966;16.992;2023-02-08T14:02:09;83;59;36
57049;PMS7003;42935;50.966;16.992;2023-02-08T14:08:56;86;60;35
57049;PMS7003;42935;50.966;16.992;2023-02-08T14:11:55;81;58;34
57049;PMS7003;42935;50.966;16.992;2023-02-08T14:15:23;85;60;36
57049;PMS7003;42935;50.966;16.992;2023-02-08T14:18:53;87;62;36
57049;PMS7003;42935;50.966;16.992;2023-02-08T14:22:16;81;58;34
57049;PMS7003;42935;50.966;16.992;2023-02-08T14:25:27;84;58;36
57049;PMS7003;42935;50.966;16.992;2023-02-08T14:28:46;80;58;35
57049;PMS7003;42935;50.966;16.992;2023-02-08T14:32:20;81;58;35
57049;PMS7003;42935;50.966;16.992;2023-02-08T14:35:39;85;59;34
57049;PMS7003;42935;50.966;16.992;2023-02-08T14:38:57;84;59;35
57049;PMS7003;42935;50.966;16.992;2023-02-08T14:45:42;78;55;33
57049;PMS7003;42935;50.966;16.992;2023-02-08T14:52:31;83;56;33
57049;PMS7003;42935;50.966;16.992;2023-02-08T14:55:54;72;52;32
57049;PMS7003;42935;50.966;16.992;2023-02-08T14:59:14;79;58;33
57049;PMS7003;42935;50.966;16.992;2023-02-08T15:02:28;79;56;34
57049;PMS7003;42935;50.966;16.992;2023-02-08T15:05:47;83;57;34
57049;PMS7003;42935;50.966;16.992;2023-02-08T15:12:26;78;56;35
57049;PMS7003;42935;50.966;16.992;2023-02-08T15:15:48;71;53;34
57049;PMS7003;42935;50.966;16.992;2023-02-08T15:19:06;75;52;32
57049;PMS7003;42935;50.966;16.992;2023-02-08T15:25:35;76;56;34
57049;PMS7003;42935;50.966;16.992;2023-02-08T15:28:50;83;54;33
57049;PMS7003;42935;50.966;16.992;2023-02-08T15:32:01;77;56;34
57049;PMS7003;42935;50.966;16.992;2023-02-08T15:35:14;80;57;35
57049;PMS7003;42935;50.966;16.992;2023-02-08T15:38:31;82;56;36
57049;PMS7003;42935;50.966;16.992;2023-02-08T15:41:49;88;61;37
57049;PMS7003;42935;50.966;16.992;2023-02-08T15:48:32;93;64;38
57049;PMS7003;42935;50.966;16.992;2023-02-08T15:51:54;98;72;40
57049;PMS7003;42935;50.966;16.992;2023-02-08T15:55:15;95;70;42
57049;PMS7003;42935;50.966;16.992;2023-02-08T15:58:38;91;68;39
57049;PMS7003;42935;50.966;16.992;2023-02-08T16:05:38;100;74;43
57049;PMS7003;42935;50.966;16.992;2023-02-08T16:08:55;147;106;58
57049;PMS7003;42935;50.966;16.992;2023-02-08T16:12:23;156;109;57
57049;PMS7003;42935;50.966;16.992;2023-02-08T16:15:43;199;139;72
57049;PMS7003;42935;50.966;16.992;2023-02-08T16:19:17;187;129;68
57049;PMS7003;42935;50.966;16.992;2023-02-08T16:22:31;158;112;60
57049;PMS7003;42935;50.966;16.992;2023-02-08T16:25:45;141;103;55
57049;PMS7003;42935;50.966;16.992;2023-02-08T16:29:02;122;90;48
57049;PMS7003;42935;50.966;16.992;2023-02-08T16:35:42;100;72;42
57049;PMS7003;42935;50.966;16.992;2023-02-08T16:42:37;92;68;43
57049;PMS7003;42935;50.966;16.992;2023-02-08T16:49:16;90;69;40
57049;PMS7003;42935;50.966;16.992;2023-02-08T16:52:32;95;69;40
57049;PMS7003;42935;50.966;16.992;2023-02-08T16:55:46;98;68;41
57049;PMS7003;42935;50.966;16.992;2023-02-08T16:59:00;104;75;44
57049;PMS7003;42935;50.966;16.992;2023-02-08T17:02:17;95;71;40
57049;PMS7003;42935;50.966;16.992;2023-02-08T17:05:36;101;75;42
57049;PMS7003;42935;50.966;16.992;2023-02-08T17:08:56;95;67;41
57049;PMS7003;42935;50.966;16.992;2023-02-08T17:12:13;89;65;39
57049;PMS7003;42935;50.966;16.992;2023-02-08T17:15:25;88;62;39
57049;PMS7003;42935;50.966;16.992;2023-02-08T17:18:32;85;62;39
57049;PMS7003;42935;50.966;16.992;2023-02-08T17:21:50;96;67;40
57049;PMS7003;42935;50.966;16.992;2023-02-08T17:25:05;91;63;39
57049;PMS7003;42935;50.966;16.992;2023-02-08T17:28:21;94;66;40
57049;PMS7003;42935;50.966;16.992;2023-02-08T17:31:39;92;65;39
57049;PMS7003;42935;50.966;16.992;2023-02-08T17:34:53;92;64;38
57049;PMS7003;42935;50.966;16.992;2023-02-08T17:38:12;87;61;38
57049;PMS7003;42935;50.966;16.992;2023-02-08T17:41:20;90;62;38
57049;PMS7003;42935;50.966;16.992;2023-02-08T17:44:34;89;67;38
57049;PMS7003;42935;50.966;16.992;2023-02-08T17:47:53;95;68;38
57049;PMS7003;42935;50.966;16.992;2023-02-08T17:51:15;90;66;39
57049;PMS7003;42935;50.966;16.992;2023-02-08T17:54:35;92;67;39
57049;PMS7003;42935;50.966;16.992;2023-02-08T17:57:48;91;63;40
57049;PMS7003;42935;50.966;16.992;2023-02-08T18:01:03;95;62;39
57049;PMS7003;42935;50.966;16.992;2023-02-08T18:04:24;92;65;39
57049;PMS7003;42935;50.966;16.992;2023-02-08T18:07:50;94;66;39
57049;PMS7003;42935;50.966;16.992;2023-02-08T18:11:28;87;63;39
57049;PMS7003;42935;50.966;16.992;2023-02-08T18:14:41;92;65;40
57049;PMS7003;42935;50.966;16.992;2023-02-08T18:17:59;92;64;38
57049;PMS7003;42935;50.966;16.992;2023-02-08T18:21:15;90;65;38
57049;PMS7003;42935;50.966;16.992;2023-02-08T18:24:32;93;65;36
57049;PMS7003;42935;50.966;16.992;2023-02-08T18:27:41;101;69;40
57049;PMS7003;42935;50.966;16.992;2023-02-08T18:34:23;94;68;40
57049;PMS7003;42935;50.966;16.992;2023-02-08T18:37:40;89;65;40
57049;PMS7003;42935;50.966;16.992;2023-02-08T18:40:59;90;66;39
57049;PMS7003;42935;50.966;16.992;2023-02-08T18:44:14;89;63;38
57049;PMS7003;42935;50.966;16.992;2023-02-08T18:47:33;92;66;39
57049;PMS7003;42935;50.966;16.992;2023-02-08T18:50:53;97;67;40
57049;PMS7003;42935;50.966;16.992;2023-02-08T18:54:07;93;65;40
57049;PMS7003;42935;50.966;16.992;2023-02-08T18:57:24;94;68;40
57049;PMS7003;42935;50.966;16.992;2023-02-08T19:00:42;102;73;42
57049;PMS7003;42935;50.966;16.992;2023-02-08T19:03:54;91;61;38
57049;PMS7003;42935;50.966;16.992;2023-02-08T19:07:08;92;66;40
57049;PMS7003;42935;50.966;16.992;2023-02-08T19:10:26;99;72;42
57049;PMS7003;42935;50.966;16.992;2023-02-08T19:13:35;98;70;40
57049;PMS7003;42935;50.966;16.992;2023-02-08T19:16:46;99;71;42
57049;PMS7003;42935;50.966;16.992;2023-02-08T19:19:59;99;68;40
57049;PMS7003;42935;50.966;16.992;2023-02-08T19:23:12;101;68;41
57049;PMS7003;42935;50.966;16.992;2023-02-08T19:26:24;99;68;41
57049;PMS7003;42935;50.966;16.992;2023-02-08T19:29:39;94;70;41
57049;PMS7003;42935;50.966;16.992;2023-02-08T19:32:58;97;66;39
57049;PMS7003;42935;50.966;16.992;2023-02-08T19:36:12;95;65;38
57049;PMS7003;42935;50.966;16.992;2023-02-08T19:39:29;89;64;36
57049;PMS7003;42935;50.966;16.992;2023-02-08T19:42:48;87;62;37
57049;PMS7003;42935;50.966;16.992;2023-02-08T19:45:57;90;63;38
57049;PMS7003;42935;50.966;16.992;2023-02-08T19:49:11;88;65;39
57049;PMS7003;42935;50.966;16.992;2023-02-08T19:52:20;93;65;40
57049;PMS7003;42935;50.966;16.992;2023-02-08T19:55:37;95;68;40
57049;PMS7003;42935;50.966;16.992;2023-02-08T19:58:48;95;68;40
57049;PMS7003;42935;50.966;16.992;2023-02-08T20:02:05;93;67;39
57049;PMS7003;42935;50.966;16.992;2023-02-08T20:05:22;96;69;39
57049;PMS7003;42935;50.966;16.992;2023-02-08T20:08:29;90;69;41
57049;PMS7003;42935;50.966;16.992;2023-02-08T20:11:48;98;71;40
57049;PMS7003;42935;50.966;16.992;2023-02-08T20:14:58;97;68;39
57049;PMS7003;42935;50.966;16.992;2023-02-08T20:18:15;84;64;37
57049;PMS7003;42935;50.966;16.992;2023-02-08T20:21:32;98;68;40
57049;PMS7003;42935;50.966;16.992;2023-02-08T20:24:47;94;67;40
57049;PMS7003;42935;50.966;16.992;2023-02-08T20:28:04;106;76;42
57049;PMS7003;42935;50.966;16.992;2023-02-08T20:31:47;99;68;41
57049;PMS7003;42935;50.966;16.992;2023-02-08T20:35:06;94;68;41
57049;PMS7003;42935;50.966;16.992;2023-02-08T20:38:17;109;73;43
57049;PMS7003;42935;50.966;16.992;2023-02-08T20:41:27;109;76;42
57049;PMS7003;42935;50.966;16.992;2023-02-08T20:44:41;107;78;43
57049;PMS7003;42935;50.966;16.992;2023-02-08T20:47:57;110;76;43
57049;PMS7003;42935;50.966;16.992;2023-02-08T20:51:14;99;72;41
57049;PMS7003;42935;50.966;16.992;2023-02-08T20:54:29;101;72;43
57049;PMS7003;42935;50.966;16.992;2023-02-08T20:57:39;102;73;42
57049;PMS7003;42935;50.966;16.992;2023-02-08T21:00:54;113;80;44
57049;PMS7003;42935;50.966;16.992;2023-02-08T21:04:12;120;87;46
57049;PMS7003;42935;50.966;16.992;2023-02-08T21:07:24;112;82;46
57049;PMS7003;42935;50.966;16.992;2023-02-08T21:10:40;116;84;46
57049;PMS7003;42935;50.966;16.992;2023-02-08T21:13:53;107;74;41
57049;PMS7003;42935;50.966;16.992;2023-02-08T21:17:10;110;81;44
57049;PMS7003;42935;50.966;16.992;2023-02-08T21:20:23;115;84;46
57049;PMS7003;42935;50.966;16.992;2023-02-08T21:23:31;116;82;45
57049;PMS7003;42935;50.966;16.992;2023-02-08T21:26:45;110;76;42
57049;PMS7003;42935;50.966;16.992;2023-02-08T21:29:58;118;84;47
57049;PMS7003;42935;50.966;16.992;2023-02-08T21:33:13;118;86;49
57049;PMS7003;42935;50.966;16.992;2023-02-08T21:36:23;112;81;46
57049;PMS7003;42935;50.966;16.992;2023-02-08T21:39:36;116;82;43
57049;PMS7003;42935;50.966;16.992;2023-02-08T21:42:44;129;85;46
57049;PMS7003;42935;50.966;16.992;2023-02-08T21:46:02;116;81;46
57049;PMS7003;42935;50.966;16.992;2023-02-08T21:49:13;119;87;45
57049;PMS7003;42935;50.966;16.992;2023-02-08T21:52:34;116;81;45
57049;PMS7003;42935;50.966;16.992;2023-02-08T21:56:02;121;84;47
57049;PMS7003;42935;50.966;16.992;2023-02-08T21:59:21;121;83;47
57049;PMS7003;42935;50.966;16.992;2023-02-08T22:02:40;120;86;46
57049;PMS7003;42935;50.966;16.992;2023-02-08T22:05:51;115;82;45
57049;PMS7003;42935;50.966;16.992;2023-02-08T22:09:23;122;85;44
57049;PMS7003;42935;50.966;16.992;2023-02-08T22:12:39;118;82;46
57049;PMS7003;42935;50.966;16.992;2023-02-08T22:15:54;123;91;50
57049;PMS7003;42935;50.966;16.992;2023-02-08T22:19:08;112;77;45
57049;PMS7003;42935;50.966;16.992;2023-02-08T22:22:19;118;86;49
57049;PMS7003;42935;50.966;16.992;2023-02-08T22:25:30;129;86;47
57049;PMS7003;42935;50.966;16.992;2023-02-08T22:28:45;120;82;46
57049;PMS7003;42935;50.966;16.992;2023-02-08T22:31:57;126;85;47
57049;PMS7003;42935;50.966;16.992;2023-02-08T22:35:11;127;87;50
57049;PMS7003;42935;50.966;16.992;2023-02-08T22:38:20;134;91;51
57049;PMS7003;42935;50.966;16.992;2023-02-08T22:41:32;117;79;43
57049;PMS7003;42935;50.966;16.992;2023-02-08T22:44:45;128;89;50
57049;PMS7003;42935;50.966;16.992;2023-02-08T22:47:58;122;89;48
57049;PMS7003;42935;50.966;16.992;2023-02-08T22:51:11;129;89;48
57049;PMS7003;42935;50.966;16.992;2023-02-08T22:54:31;118;78;46
57049;PMS7003;42935;50.966;16.992;2023-02-08T22:57:49;132;92;50
57049;PMS7003;42935;50.966;16.992;2023-02-08T23:01:10;129;91;50
57049;PMS7003;42935;50.966;16.992;2023-02-08T23:04:29;127;91;50
57049;PMS7003;42935;50.966;16.992;2023-02-08T23:07:43;130;93;50
57049;PMS7003;42935;50.966;16.992;2023-02-08T23:10:58;121;85;47
57049;PMS7003;42935;50.966;16.992;2023-02-08T23:14:15;132;91;49
57049;PMS7003;42935;50.966;16.992;2023-02-08T23:17:25;131;91;51
57049;PMS7003;42935;50.966;16.992;2023-02-08T23:20:38;121;84;49
57049;PMS7003;42935;50.966;16.992;2023-02-08T23:23:53;108;79;48
57049;PMS7003;42935;50.966;16.992;2023-02-08T23:27:09;116;81;47
57049;PMS7003;42935;50.966;16.992;2023-02-08T23:30:19;112;81;45
57049;PMS7003;42935;50.966;16.992;2023-02-08T23:33:43;123;83;45